createdAt,value
2017-08-01T00:00:02.018Z,22.66
2017-08-01T00:00:28.213Z,22.7
2017-08-01T00:00:54.394Z,22.73
2017-08-01T00:01:20.566Z,22.63
2017-08-01T00:01:46.752Z,22.6
2017-08-01T00:02:12.941Z,22.53
2017-08-01T00:02:39.052Z,22.5
2017-08-01T00:03:05.170Z,22.38
2017-08-01T00:03:31.359Z,22.35
2017-08-01T00:03:57.497Z,22.33
2017-08-01T00:04:23.640Z,22.26
2017-08-01T00:04:49.795Z,22.22
2017-08-01T00:05:15.965Z,22.25
2017-08-01T00:05:42.075Z,22.18
2017-08-01T00:06:08.251Z,22.17
2017-08-01T00:06:34.463Z,22.17
2017-08-01T00:07:00.649Z,22.13
2017-08-01T00:07:26.790Z,22.2
2017-08-01T00:07:52.962Z,22.18
2017-08-01T00:08:19.215Z,22.17
2017-08-01T00:08:45.454Z,22.17
2017-08-01T00:09:11.644Z,22.23
2017-08-01T00:09:37.809Z,22.3
2017-08-01T00:10:04.043Z,22.18
2017-08-01T00:10:30.184Z,22.17
2017-08-01T00:10:56.361Z,22.26
2017-08-01T00:11:22.542Z,22.22
2017-08-01T00:11:48.660Z,22.23
2017-08-01T00:12:14.830Z,22.29
2017-08-01T00:12:40.968Z,22.22
2017-08-01T00:13:07.193Z,22.23
2017-08-01T00:13:33.333Z,22.26
2017-08-01T00:13:59.530Z,22.33
2017-08-01T00:14:25.712Z,22.25
2017-08-01T00:14:51.864Z,22.29
2017-08-01T00:15:17.998Z,22.33
2017-08-01T00:15:44.205Z,22.32
2017-08-01T00:16:10.366Z,22.17
2017-08-01T00:16:36.506Z,22.2
2017-08-01T00:17:02.628Z,22.22
2017-08-01T00:17:28.767Z,22.15
2017-08-01T00:17:54.894Z,22.23
2017-08-01T00:18:21.041Z,22.3
2017-08-01T00:18:47.208Z,22.22
2017-08-01T00:19:13.389Z,22.2
2017-08-01T00:19:39.579Z,22.13
2017-08-01T00:20:05.741Z,22.13
2017-08-01T00:20:31.892Z,22.18
2017-08-01T00:20:58.084Z,22.2
2017-08-01T00:21:24.221Z,22.18
2017-08-01T00:21:50.362Z,22.13
2017-08-01T00:22:16.550Z,22.15
2017-08-01T00:22:42.664Z,22.13
2017-08-01T00:23:08.786Z,22.18
2017-08-01T00:23:35.013Z,22.15
2017-08-01T00:24:01.131Z,22.17
2017-08-01T00:24:27.354Z,22.18
2017-08-01T00:24:53.489Z,22.11
2017-08-01T00:25:19.665Z,22.15
2017-08-01T00:25:45.816Z,22.18
2017-08-01T00:26:11.934Z,22.11
2017-08-01T00:26:38.099Z,22.22
2017-08-01T00:27:04.229Z,22.17
2017-08-01T00:27:30.373Z,22.15
2017-08-01T00:27:56.508Z,22.17
2017-08-01T00:28:22.697Z,22.15
2017-08-01T00:28:48.814Z,22.07
2017-08-01T00:29:14.981Z,22.17
2017-08-01T00:29:41.130Z,21.99
2017-08-01T00:30:07.282Z,22.06
2017-08-01T00:30:33.450Z,22.08
2017-08-01T00:30:59.594Z,22.1
2017-08-01T00:31:25.783Z,22.1
2017-08-01T00:31:51.953Z,22.13
2017-08-01T00:32:18.099Z,22.07
2017-08-01T00:32:44.223Z,22.1
2017-08-01T00:33:10.337Z,22.13
2017-08-01T00:33:36.473Z,22.18
2017-08-01T00:34:02.628Z,22.26
2017-08-01T00:34:28.803Z,22.38
2017-08-01T00:34:54.960Z,22.35
2017-08-01T00:35:21.130Z,22.35
2017-08-01T00:35:47.280Z,22.41
2017-08-01T00:36:13.466Z,22.44
2017-08-01T00:36:39.607Z,22.44
2017-08-01T00:37:05.771Z,22.54
2017-08-01T00:37:31.925Z,22.54
2017-08-01T00:37:58.042Z,22.47
2017-08-01T00:38:24.181Z,22.54
2017-08-01T00:38:50.385Z,22.57
2017-08-01T00:39:16.482Z,22.59
2017-08-01T00:39:42.657Z,22.51
2017-08-01T00:40:08.766Z,22.54
2017-08-01T00:40:34.965Z,22.59
2017-08-01T00:41:01.157Z,22.51
2017-08-01T00:41:27.304Z,22.63
2017-08-01T00:41:53.440Z,22.53
2017-08-01T00:42:19.592Z,22.62
2017-08-01T00:42:45.813Z,22.54
2017-08-01T00:43:11.954Z,22.54
2017-08-01T00:43:38.104Z,22.48
2017-08-01T00:44:04.258Z,22.51
2017-08-01T00:44:30.392Z,22.54
2017-08-01T00:44:56.566Z,22.54
2017-08-01T00:45:22.708Z,22.59
2017-08-01T00:45:48.890Z,22.63
2017-08-01T00:46:15.013Z,22.62
2017-08-01T00:46:41.201Z,22.7
2017-08-01T00:47:07.382Z,22.76
2017-08-01T00:47:33.564Z,22.75
2017-08-01T00:47:59.729Z,22.84
2017-08-01T00:48:25.929Z,22.88
2017-08-01T00:48:52.084Z,22.81
2017-08-01T00:49:18.195Z,22.85
2017-08-01T00:49:44.338Z,22.81
2017-08-01T00:50:10.490Z,22.87
2017-08-01T00:50:36.634Z,22.9
2017-08-01T00:51:02.790Z,22.72
2017-08-01T00:51:28.899Z,22.8
2017-08-01T00:51:55.014Z,22.75
2017-08-01T00:52:21.173Z,22.91
2017-08-01T00:52:47.335Z,22.93
2017-08-01T00:53:13.479Z,22.91
2017-08-01T00:53:39.664Z,22.93
2017-08-01T00:54:05.802Z,22.83
2017-08-01T00:54:31.966Z,22.9
2017-08-01T00:54:58.158Z,22.84
2017-08-01T00:55:24.331Z,22.84
2017-08-01T00:55:50.467Z,22.93
2017-08-01T00:56:16.659Z,22.91
2017-08-01T00:56:42.830Z,22.91
2017-08-01T00:57:09.017Z,23
2017-08-01T00:57:35.185Z,22.96
2017-08-01T00:58:01.407Z,23.05
2017-08-01T00:58:27.568Z,23.03
2017-08-01T00:58:53.780Z,23.03
2017-08-01T00:59:19.945Z,23.03
2017-08-01T00:59:46.158Z,23
2017-08-01T01:00:12.341Z,23
2017-08-01T01:00:38.452Z,22.98
2017-08-01T01:01:04.601Z,23.02
2017-08-01T01:01:30.792Z,22.9
2017-08-01T01:01:56.955Z,22.96
2017-08-01T01:02:23.137Z,22.94
2017-08-01T01:02:49.300Z,22.93
2017-08-01T01:03:15.452Z,22.91
2017-08-01T01:03:41.636Z,22.93
2017-08-01T01:04:07.776Z,22.96
2017-08-01T01:04:33.961Z,22.84
2017-08-01T01:05:00.114Z,22.93
2017-08-01T01:05:26.221Z,22.9
2017-08-01T01:05:52.367Z,22.87
2017-08-01T01:06:18.502Z,22.84
2017-08-01T01:06:44.630Z,22.83
2017-08-01T01:07:10.774Z,22.91
2017-08-01T01:07:36.921Z,22.85
2017-08-01T01:08:03.081Z,22.87
2017-08-01T01:08:29.238Z,22.8
2017-08-01T01:08:55.346Z,22.84
2017-08-01T01:09:21.466Z,22.81
2017-08-01T01:09:47.587Z,22.87
2017-08-01T01:10:13.729Z,22.81
2017-08-01T01:10:39.877Z,22.83
2017-08-01T01:11:06.065Z,22.93
2017-08-01T01:11:32.237Z,22.91
2017-08-01T01:11:58.432Z,22.9
2017-08-01T01:12:24.589Z,22.91
2017-08-01T01:12:50.770Z,22.93
2017-08-01T01:13:16.968Z,23.03
2017-08-01T01:13:43.212Z,23.02
2017-08-01T01:14:09.395Z,23.06
2017-08-01T01:14:35.645Z,23.08
2017-08-01T01:15:01.797Z,23.12
2017-08-01T01:15:28.013Z,23.08
2017-08-01T01:15:54.150Z,23.08
2017-08-01T01:16:20.349Z,23.1
2017-08-01T01:16:46.473Z,23.08
2017-08-01T01:17:12.647Z,23.06
2017-08-01T01:17:38.819Z,23.1
2017-08-01T01:18:04.973Z,23.09
2017-08-01T01:18:31.087Z,23.05
2017-08-01T01:18:57.270Z,23.09
2017-08-01T01:19:23.432Z,23.02
2017-08-01T01:19:49.617Z,23.02
2017-08-01T01:20:15.832Z,23.05
2017-08-01T01:20:41.972Z,22.99
2017-08-01T01:21:08.117Z,23
2017-08-01T01:21:34.332Z,22.99
2017-08-01T01:22:00.449Z,23.1
2017-08-01T01:22:26.587Z,23.03
2017-08-01T01:22:52.774Z,23.12
2017-08-01T01:23:18.926Z,23.06
2017-08-01T01:23:45.094Z,23.08
2017-08-01T01:24:11.277Z,23.06
2017-08-01T01:24:37.421Z,23.02
2017-08-01T01:25:03.577Z,23.1
2017-08-01T01:25:29.720Z,23.09
2017-08-01T01:25:55.861Z,23.1
2017-08-01T01:26:22.053Z,23.1
2017-08-01T01:26:48.164Z,23.1
2017-08-01T01:27:14.301Z,23.13
2017-08-01T01:27:40.485Z,23.1
2017-08-01T01:28:06.670Z,23.05
2017-08-01T01:28:32.780Z,23.1
2017-08-01T01:28:58.960Z,23.17
2017-08-01T01:29:25.210Z,23.12
2017-08-01T01:29:51.354Z,23.06
2017-08-01T01:30:17.530Z,23.1
2017-08-01T01:30:43.692Z,23.06
2017-08-01T01:31:09.848Z,23.08
2017-08-01T01:31:36.026Z,23.1
2017-08-01T01:32:02.135Z,23.1
2017-08-01T01:32:28.255Z,23.15
2017-08-01T01:32:54.384Z,23.12
2017-08-01T01:33:20.546Z,23.13
2017-08-01T01:33:46.696Z,23.1
2017-08-01T01:34:12.852Z,23.12
2017-08-01T01:34:38.962Z,23.13
2017-08-01T01:35:05.109Z,23.15
2017-08-01T01:35:31.257Z,23.23
2017-08-01T01:35:57.433Z,23.23
2017-08-01T01:36:23.654Z,23.24
2017-08-01T01:36:49.783Z,23.21
2017-08-01T01:37:15.996Z,23.21
2017-08-01T01:37:42.216Z,23.24
2017-08-01T01:38:08.325Z,23.24
2017-08-01T01:38:34.492Z,23.23
2017-08-01T01:39:00.660Z,23.21
2017-08-01T01:39:26.853Z,23.23
2017-08-01T01:39:52.961Z,23.27
2017-08-01T01:40:19.119Z,23.28
2017-08-01T01:40:45.233Z,23.36
2017-08-01T01:41:11.383Z,23.39
2017-08-01T01:41:37.562Z,23.21
2017-08-01T01:42:03.733Z,23.31
2017-08-01T01:42:29.891Z,23.37
2017-08-01T01:42:56.057Z,23.34
2017-08-01T01:43:22.224Z,23.34
2017-08-01T01:43:48.351Z,23.23
2017-08-01T01:44:14.558Z,23.37
2017-08-01T01:44:40.695Z,23.36
2017-08-01T01:45:06.881Z,23.41
2017-08-01T01:45:33.037Z,23.32
2017-08-01T01:45:59.165Z,23.36
2017-08-01T01:46:25.403Z,23.43
2017-08-01T01:46:51.550Z,23.36
2017-08-01T01:47:17.708Z,23.28
2017-08-01T01:47:43.859Z,23.34
2017-08-01T01:48:09.966Z,23.39
2017-08-01T01:48:36.124Z,23.47
2017-08-01T01:49:02.242Z,23.39
2017-08-01T01:49:28.380Z,23.39
2017-08-01T01:49:54.534Z,23.34
2017-08-01T01:50:20.694Z,23.32
2017-08-01T01:50:46.831Z,23.36
2017-08-01T01:51:13.046Z,23.37
2017-08-01T01:51:39.211Z,23.37
2017-08-01T01:52:05.342Z,23.27
2017-08-01T01:52:31.556Z,23.43
2017-08-01T01:52:57.692Z,23.36
2017-08-01T01:53:23.850Z,23.28
2017-08-01T01:53:49.973Z,23.36
2017-08-01T01:54:16.145Z,23.31
2017-08-01T01:54:42.290Z,23.25
2017-08-01T01:55:08.447Z,23.28
2017-08-01T01:55:34.585Z,23.28
2017-08-01T01:56:00.702Z,23.28
2017-08-01T01:56:26.829Z,23.23
2017-08-01T01:56:52.976Z,23.24
2017-08-01T01:57:19.139Z,23.31
2017-08-01T01:57:45.293Z,23.27
2017-08-01T01:58:11.412Z,23.27
2017-08-01T01:58:37.605Z,23.32
2017-08-01T01:59:03.758Z,23.32
2017-08-01T01:59:29.878Z,23.32
2017-08-01T01:59:55.989Z,23.32
2017-08-01T02:00:22.169Z,23.25
2017-08-01T02:00:48.294Z,23.32
2017-08-01T02:01:14.464Z,23.28
2017-08-01T02:01:40.637Z,23.24
2017-08-01T02:02:06.794Z,23.25
2017-08-01T02:02:32.902Z,23.24
2017-08-01T02:02:59.075Z,23.25
2017-08-01T02:03:25.226Z,23.24
2017-08-01T02:03:51.410Z,23.28
2017-08-01T02:04:17.598Z,23.25
2017-08-01T02:04:43.737Z,23.23
2017-08-01T02:05:09.883Z,23.28
2017-08-01T02:05:36.068Z,23.32
2017-08-01T02:06:02.212Z,23.28
2017-08-01T02:06:28.413Z,23.25
2017-08-01T02:06:54.600Z,23.28
2017-08-01T02:07:20.772Z,23.27
2017-08-01T02:07:46.934Z,23.24
2017-08-01T02:08:13.085Z,23.32
2017-08-01T02:08:39.241Z,23.28
2017-08-01T02:09:05.395Z,23.31
2017-08-01T02:09:31.566Z,23.34
2017-08-01T02:09:57.736Z,23.34
2017-08-01T02:10:23.897Z,23.25
2017-08-01T02:10:50.041Z,23.31
2017-08-01T02:11:16.150Z,23.24
2017-08-01T02:11:42.308Z,23.32
2017-08-01T02:12:08.426Z,23.21
2017-08-01T02:12:34.567Z,23.24
2017-08-01T02:13:00.719Z,23.21
2017-08-01T02:13:26.869Z,23.23
2017-08-01T02:13:53.035Z,23.25
2017-08-01T02:14:19.193Z,23.23
2017-08-01T02:14:45.358Z,23.21
2017-08-01T02:15:11.559Z,23.18
2017-08-01T02:15:37.736Z,23.2
2017-08-01T02:16:03.877Z,23.09
2017-08-01T02:16:30.027Z,23.18
2017-08-01T02:16:56.211Z,23.18
2017-08-01T02:17:22.371Z,23.17
2017-08-01T02:17:48.584Z,23.15
2017-08-01T02:18:14.800Z,23.09
2017-08-01T02:18:40.991Z,23.15
2017-08-01T02:19:07.193Z,23.13
2017-08-01T02:19:33.351Z,23.12
2017-08-01T02:19:59.516Z,23.13
2017-08-01T02:20:25.759Z,23.17
2017-08-01T02:20:51.900Z,23.2
2017-08-01T02:21:18.145Z,23.21
2017-08-01T02:21:44.302Z,23.21
2017-08-01T02:22:10.471Z,23.21
2017-08-01T02:22:36.588Z,23.23
2017-08-01T02:23:02.751Z,23.23
2017-08-01T02:23:28.887Z,23.21
2017-08-01T02:23:55.034Z,23.23
2017-08-01T02:24:21.246Z,23.21
2017-08-01T02:24:47.418Z,23.31
2017-08-01T02:25:13.610Z,23.2
2017-08-01T02:25:39.759Z,23.2
2017-08-01T02:26:05.907Z,23.23
2017-08-01T02:26:32.061Z,23.21
2017-08-01T02:26:58.202Z,23.23
2017-08-01T02:27:24.354Z,23.32
2017-08-01T02:27:50.512Z,23.23
2017-08-01T02:28:16.680Z,23.25
2017-08-01T02:28:42.875Z,23.27
2017-08-01T02:29:09.035Z,23.24
2017-08-01T02:29:35.216Z,23.25
2017-08-01T02:30:01.328Z,23.32
2017-08-01T02:30:27.546Z,23.27
2017-08-01T02:30:53.763Z,23.24
2017-08-01T02:31:19.971Z,23.25
2017-08-01T02:31:46.172Z,23.28
2017-08-01T02:32:12.341Z,23.34
2017-08-01T02:32:38.533Z,23.21
2017-08-01T02:33:04.678Z,23.21
2017-08-01T02:33:30.846Z,23.17
2017-08-01T02:33:57.030Z,23.1
2017-08-01T02:34:23.213Z,23.09
2017-08-01T02:34:49.353Z,23.03
2017-08-01T02:35:15.543Z,23.02
2017-08-01T02:35:41.731Z,23
2017-08-01T02:36:07.955Z,23.02
2017-08-01T02:36:34.128Z,22.98
2017-08-01T02:37:00.420Z,22.96
2017-08-01T02:37:26.605Z,22.96
2017-08-01T02:37:52.791Z,22.88
2017-08-01T02:38:18.953Z,22.91
2017-08-01T02:38:45.168Z,22.91
2017-08-01T02:39:11.353Z,22.94
2017-08-01T02:39:37.517Z,22.94
2017-08-01T02:40:03.692Z,22.88
2017-08-01T02:40:29.910Z,22.87
2017-08-01T02:40:56.051Z,22.91
2017-08-01T02:41:22.199Z,22.9
2017-08-01T02:41:48.390Z,22.91
2017-08-01T02:42:14.532Z,22.96
2017-08-01T02:42:40.730Z,22.93
2017-08-01T02:43:06.893Z,22.85
2017-08-01T02:43:33.067Z,22.88
2017-08-01T02:43:59.238Z,22.91
2017-08-01T02:44:25.392Z,22.94
2017-08-01T02:44:51.572Z,22.96
2017-08-01T02:45:17.737Z,22.9
2017-08-01T02:45:43.921Z,22.96
2017-08-01T02:46:10.080Z,22.9
2017-08-01T02:46:36.246Z,22.87
2017-08-01T02:47:02.450Z,22.94
2017-08-01T02:47:28.636Z,22.88
2017-08-01T02:47:54.838Z,22.88
2017-08-01T02:48:21.018Z,22.87
2017-08-01T02:48:47.153Z,22.91
2017-08-01T02:49:13.330Z,22.99
2017-08-01T02:49:39.487Z,22.9
2017-08-01T02:50:05.600Z,22.91
2017-08-01T02:50:31.701Z,22.91
2017-08-01T02:50:57.892Z,22.88
2017-08-01T02:51:24.088Z,22.93
2017-08-01T02:51:50.234Z,22.9
2017-08-01T02:52:16.376Z,22.9
2017-08-01T02:52:42.546Z,22.88
2017-08-01T02:53:08.685Z,22.94
2017-08-01T02:53:34.871Z,22.94
2017-08-01T02:54:01.024Z,22.94
2017-08-01T02:54:27.186Z,22.91
2017-08-01T02:54:53.328Z,22.9
2017-08-01T02:55:19.470Z,22.91
2017-08-01T02:55:45.576Z,22.96
2017-08-01T02:56:11.723Z,22.91
2017-08-01T02:56:37.861Z,22.91
2017-08-01T02:57:04.022Z,22.93
2017-08-01T02:57:30.119Z,22.88
2017-08-01T02:57:56.261Z,22.93
2017-08-01T02:58:22.420Z,22.91
2017-08-01T02:58:48.575Z,22.96
2017-08-01T02:59:14.699Z,22.91
2017-08-01T02:59:40.794Z,22.9
2017-08-01T03:00:06.938Z,22.93
2017-08-01T03:00:33.150Z,22.93
2017-08-01T03:00:59.278Z,22.87
2017-08-01T03:01:25.449Z,22.84
2017-08-01T03:01:51.580Z,22.94
2017-08-01T03:02:17.741Z,22.87
2017-08-01T03:02:43.871Z,22.98
2017-08-01T03:03:09.975Z,22.83
2017-08-01T03:03:36.138Z,22.87
2017-08-01T03:04:02.250Z,22.83
2017-08-01T03:04:28.400Z,22.88
2017-08-01T03:04:54.495Z,22.81
2017-08-01T03:05:20.655Z,22.85
2017-08-01T03:05:46.838Z,22.81
2017-08-01T03:06:13.000Z,22.88
2017-08-01T03:06:39.154Z,22.93
2017-08-01T03:07:05.314Z,22.93
2017-08-01T03:07:31.449Z,22.93
2017-08-01T03:07:57.550Z,22.9
2017-08-01T03:08:23.683Z,22.91
2017-08-01T03:08:49.774Z,22.91
2017-08-01T03:09:15.920Z,22.84
2017-08-01T03:09:42.054Z,22.93
2017-08-01T03:10:08.199Z,22.84
2017-08-01T03:10:34.329Z,22.84
2017-08-01T03:11:00.447Z,22.85
2017-08-01T03:11:26.592Z,22.9
2017-08-01T03:11:52.697Z,22.87
2017-08-01T03:12:18.816Z,22.8
2017-08-01T03:12:45.438Z,22.68
2017-08-01T03:13:11.523Z,22.7
2017-08-01T03:13:37.672Z,22.66
2017-08-01T03:14:03.756Z,22.7
2017-08-01T03:14:29.948Z,22.75
2017-08-01T03:14:56.098Z,22.66
2017-08-01T03:15:22.214Z,22.7
2017-08-01T03:15:48.371Z,22.7
2017-08-01T03:16:14.566Z,22.68
2017-08-01T03:16:40.757Z,22.73
2017-08-01T03:17:06.902Z,22.7
2017-08-01T03:17:33.040Z,22.69
2017-08-01T03:17:59.205Z,22.69
2017-08-01T03:18:25.352Z,22.65
2017-08-01T03:18:51.489Z,22.66
2017-08-01T03:19:17.620Z,22.68
2017-08-01T03:19:43.803Z,22.69
2017-08-01T03:20:09.943Z,22.73
2017-08-01T03:20:36.046Z,22.75
2017-08-01T03:21:02.235Z,22.66
2017-08-01T03:21:28.356Z,22.7
2017-08-01T03:21:54.506Z,22.62
2017-08-01T03:22:20.594Z,22.63
2017-08-01T03:22:46.754Z,22.68
2017-08-01T03:23:12.912Z,22.63
2017-08-01T03:23:39.050Z,22.68
2017-08-01T03:24:05.252Z,22.6
2017-08-01T03:24:31.413Z,22.69
2017-08-01T03:24:57.528Z,22.66
2017-08-01T03:25:23.655Z,22.69
2017-08-01T03:25:49.839Z,22.66
2017-08-01T03:26:15.978Z,22.66
2017-08-01T03:26:42.099Z,22.7
2017-08-01T03:27:08.205Z,22.63
2017-08-01T03:27:34.373Z,22.66
2017-08-01T03:28:00.539Z,22.6
2017-08-01T03:28:26.674Z,22.57
2017-08-01T03:28:52.851Z,22.6
2017-08-01T03:29:18.968Z,22.54
2017-08-01T03:29:45.095Z,22.54
2017-08-01T03:30:11.303Z,22.63
2017-08-01T03:30:37.488Z,22.59
2017-08-01T03:31:03.643Z,22.59
2017-08-01T03:31:29.807Z,22.54
2017-08-01T03:31:55.946Z,22.54
2017-08-01T03:32:22.146Z,22.53
2017-08-01T03:32:48.237Z,22.51
2017-08-01T03:33:14.371Z,22.54
2017-08-01T03:33:40.525Z,22.5
2017-08-01T03:34:06.639Z,22.53
2017-08-01T03:34:32.798Z,22.5
2017-08-01T03:34:58.921Z,22.51
2017-08-01T03:35:25.055Z,22.5
2017-08-01T03:35:51.208Z,22.47
2017-08-01T03:36:17.341Z,22.54
2017-08-01T03:36:43.486Z,22.54
2017-08-01T03:37:09.632Z,22.54
2017-08-01T03:37:35.822Z,22.54
2017-08-01T03:38:01.941Z,22.6
2017-08-01T03:38:28.072Z,22.54
2017-08-01T03:38:54.261Z,22.53
2017-08-01T03:39:20.389Z,22.48
2017-08-01T03:39:46.522Z,22.54
2017-08-01T03:40:12.639Z,22.54
2017-08-01T03:40:38.759Z,22.48
2017-08-01T03:41:04.892Z,22.47
2017-08-01T03:41:31.038Z,22.51
2017-08-01T03:41:57.175Z,22.38
2017-08-01T03:42:23.285Z,22.45
2017-08-01T03:42:49.763Z,22.43
2017-08-01T03:43:15.879Z,22.45
2017-08-01T03:43:42.035Z,22.36
2017-08-01T03:44:08.179Z,22.43
2017-08-01T03:44:34.313Z,22.38
2017-08-01T03:45:00.406Z,22.48
2017-08-01T03:45:26.570Z,22.45
2017-08-01T03:45:52.678Z,22.47
2017-08-01T03:46:18.800Z,22.44
2017-08-01T03:46:44.938Z,22.45
2017-08-01T03:47:11.044Z,22.39
2017-08-01T03:47:37.173Z,22.48
2017-08-01T03:48:03.289Z,22.35
2017-08-01T03:48:29.442Z,22.39
2017-08-01T03:48:55.578Z,22.32
2017-08-01T03:49:21.693Z,22.41
2017-08-01T03:49:47.797Z,22.39
2017-08-01T03:50:13.888Z,22.39
2017-08-01T03:50:40.021Z,22.45
2017-08-01T03:51:06.203Z,22.45
2017-08-01T03:51:32.294Z,22.36
2017-08-01T03:51:58.448Z,22.38
2017-08-01T03:52:24.581Z,22.36
2017-08-01T03:52:50.691Z,22.41
2017-08-01T03:53:16.816Z,22.38
2017-08-01T03:53:42.974Z,22.45
2017-08-01T03:54:09.116Z,22.43
2017-08-01T03:54:35.216Z,22.36
2017-08-01T03:55:01.312Z,22.36
2017-08-01T03:55:27.468Z,22.41
2017-08-01T03:55:53.629Z,22.38
2017-08-01T03:56:19.743Z,22.29
2017-08-01T03:56:45.870Z,22.38
2017-08-01T03:57:12.060Z,22.36
2017-08-01T03:57:38.232Z,22.3
2017-08-01T03:58:04.351Z,22.35
2017-08-01T03:58:30.513Z,22.29
2017-08-01T03:58:56.634Z,22.25
2017-08-01T03:59:22.797Z,22.36
2017-08-01T03:59:48.960Z,22.3
2017-08-01T04:00:15.080Z,22.28
2017-08-01T04:00:41.233Z,22.33
2017-08-01T04:01:07.374Z,22.39
2017-08-01T04:01:33.497Z,22.3
2017-08-01T04:01:59.629Z,22.43
2017-08-01T04:02:25.774Z,22.26
2017-08-01T04:02:51.864Z,22.33
2017-08-01T04:03:18.001Z,22.23
2017-08-01T04:03:44.154Z,22.29
2017-08-01T04:04:10.269Z,22.26
2017-08-01T04:04:36.424Z,22.3
2017-08-01T04:05:02.550Z,22.3
2017-08-01T04:05:28.715Z,22.26
2017-08-01T04:05:54.819Z,22.26
2017-08-01T04:06:20.935Z,22.29
2017-08-01T04:06:47.046Z,22.18
2017-08-01T04:07:13.169Z,22.3
2017-08-01T04:07:39.288Z,22.15
2017-08-01T04:08:05.471Z,22.17
2017-08-01T04:08:31.655Z,22.15
2017-08-01T04:08:57.769Z,22.15
2017-08-01T04:09:23.925Z,22.15
2017-08-01T04:09:50.085Z,22.14
2017-08-01T04:10:16.222Z,22.18
2017-08-01T04:10:42.345Z,22.15
2017-08-01T04:11:08.506Z,22.2
2017-08-01T04:11:34.650Z,22.15
2017-08-01T04:12:00.818Z,22.17
2017-08-01T04:12:26.926Z,22.13
2017-08-01T04:12:53.023Z,22.15
2017-08-01T04:13:19.159Z,22.17
2017-08-01T04:13:45.273Z,22.14
2017-08-01T04:14:11.397Z,22.11
2017-08-01T04:14:37.537Z,22.18
2017-08-01T04:15:03.669Z,22.17
2017-08-01T04:15:29.797Z,22.15
2017-08-01T04:15:55.936Z,22.15
2017-08-01T04:16:22.115Z,22.14
2017-08-01T04:16:48.277Z,22.15
2017-08-01T04:17:14.397Z,22.14
2017-08-01T04:17:40.551Z,22.07
2017-08-01T04:18:06.687Z,22.06
2017-08-01T04:18:32.842Z,22.1
2017-08-01T04:18:58.971Z,22.15
2017-08-01T04:19:25.060Z,22.04
2017-08-01T04:19:51.212Z,22.17
2017-08-01T04:20:17.374Z,22.15
2017-08-01T04:20:43.539Z,22.08
2017-08-01T04:21:09.664Z,21.96
2017-08-01T04:21:35.877Z,22
2017-08-01T04:22:02.022Z,22.06
2017-08-01T04:22:28.169Z,22
2017-08-01T04:22:54.318Z,21.96
2017-08-01T04:23:20.473Z,22.04
2017-08-01T04:23:46.632Z,22.04
2017-08-01T04:24:12.771Z,22.14
2017-08-01T04:24:38.920Z,22.08
2017-08-01T04:25:05.026Z,21.99
2017-08-01T04:25:31.168Z,22.11
2017-08-01T04:25:57.264Z,22.08
2017-08-01T04:26:23.427Z,22.06
2017-08-01T04:26:49.599Z,22.06
2017-08-01T04:27:15.740Z,22.1
2017-08-01T04:27:41.876Z,22.07
2017-08-01T04:28:08.002Z,22.08
2017-08-01T04:28:34.156Z,22.1
2017-08-01T04:29:00.274Z,22.07
2017-08-01T04:29:26.371Z,22.15
2017-08-01T04:29:52.533Z,22.11
2017-08-01T04:30:18.679Z,22.04
2017-08-01T04:30:44.771Z,22.17
2017-08-01T04:31:10.935Z,22.14
2017-08-01T04:31:37.088Z,22.14
2017-08-01T04:32:03.204Z,22.14
2017-08-01T04:32:29.334Z,22.17
2017-08-01T04:32:55.462Z,22.13
2017-08-01T04:33:21.605Z,21.99
2017-08-01T04:33:47.732Z,21.98
2017-08-01T04:34:13.837Z,22.11
2017-08-01T04:34:39.972Z,22.18
2017-08-01T04:35:06.121Z,22.14
2017-08-01T04:35:32.285Z,22.28
2017-08-01T04:35:58.375Z,22.15
2017-08-01T04:36:24.626Z,22.15
2017-08-01T04:36:50.757Z,22.18
2017-08-01T04:37:16.898Z,22.14
2017-08-01T04:37:43.012Z,22.23
2017-08-01T04:38:09.199Z,22.17
2017-08-01T04:38:35.296Z,22.35
2017-08-01T04:39:01.410Z,22.26
2017-08-01T04:39:27.537Z,22.39
2017-08-01T04:39:53.681Z,22.35
2017-08-01T04:40:19.787Z,22.39
2017-08-01T04:40:45.880Z,22.39
2017-08-01T04:41:12.019Z,22.35
2017-08-01T04:41:38.154Z,22.33
2017-08-01T04:42:04.329Z,22.38
2017-08-01T04:42:30.469Z,22.41
2017-08-01T04:42:56.603Z,22.44
2017-08-01T04:43:23.132Z,22.41
2017-08-01T04:43:49.273Z,22.38
2017-08-01T04:44:15.400Z,22.36
2017-08-01T04:44:41.561Z,22.38
2017-08-01T04:45:07.707Z,22.45
2017-08-01T04:45:33.856Z,22.39
2017-08-01T04:45:59.995Z,22.45
2017-08-01T04:46:26.152Z,22.45
2017-08-01T04:46:52.279Z,22.5
2017-08-01T04:47:18.395Z,22.51
2017-08-01T04:47:44.528Z,22.53
2017-08-01T04:48:10.690Z,22.55
2017-08-01T04:48:36.803Z,22.51
2017-08-01T04:49:02.951Z,22.6
2017-08-01T04:49:29.060Z,22.51
2017-08-01T04:49:55.152Z,22.62
2017-08-01T04:50:21.298Z,22.65
2017-08-01T04:50:47.444Z,22.63
2017-08-01T04:51:13.600Z,22.63
2017-08-01T04:51:39.706Z,22.65
2017-08-01T04:52:05.842Z,22.73
2017-08-01T04:52:31.994Z,22.6
2017-08-01T04:52:58.102Z,22.7
2017-08-01T04:53:24.217Z,22.7
2017-08-01T04:53:50.338Z,22.65
2017-08-01T04:54:16.468Z,22.7
2017-08-01T04:54:42.587Z,22.76
2017-08-01T04:55:08.751Z,22.76
2017-08-01T04:55:34.891Z,22.7
2017-08-01T04:56:01.015Z,22.76
2017-08-01T04:56:27.156Z,22.85
2017-08-01T04:56:53.287Z,22.87
2017-08-01T04:57:19.443Z,22.87
2017-08-01T04:57:45.533Z,22.84
2017-08-01T04:58:11.667Z,22.93
2017-08-01T04:58:37.774Z,22.93
2017-08-01T04:59:03.913Z,22.88
2017-08-01T04:59:30.038Z,22.91
2017-08-01T04:59:56.143Z,22.99
2017-08-01T05:00:22.290Z,22.8
2017-08-01T05:00:48.387Z,22.84
2017-08-01T05:01:14.550Z,22.84
2017-08-01T05:01:40.695Z,22.93
2017-08-01T05:02:06.853Z,22.88
2017-08-01T05:02:33.018Z,22.81
2017-08-01T05:02:59.144Z,22.87
2017-08-01T05:03:25.334Z,22.81
2017-08-01T05:03:51.426Z,22.78
2017-08-01T05:04:17.547Z,22.81
2017-08-01T05:04:43.924Z,22.85
2017-08-01T05:05:10.078Z,22.81
2017-08-01T05:05:36.193Z,22.93
2017-08-01T05:06:02.330Z,22.93
2017-08-01T05:06:28.484Z,22.93
2017-08-01T05:06:54.575Z,22.96
2017-08-01T05:07:20.684Z,22.98
2017-08-01T05:07:46.829Z,22.9
2017-08-01T05:08:12.937Z,22.87
2017-08-01T05:08:39.085Z,22.94
2017-08-01T05:09:05.228Z,22.88
2017-08-01T05:09:31.338Z,22.9
2017-08-01T05:09:57.517Z,22.91
2017-08-01T05:10:23.634Z,22.9
2017-08-01T05:10:49.818Z,23
2017-08-01T05:11:15.970Z,22.91
2017-08-01T05:11:42.061Z,23.02
2017-08-01T05:12:08.191Z,22.9
2017-08-01T05:12:34.326Z,23.02
2017-08-01T05:13:00.468Z,22.98
2017-08-01T05:13:26.622Z,23.13
2017-08-01T05:13:53.039Z,22.98
2017-08-01T05:14:19.177Z,23
2017-08-01T05:14:45.333Z,23
2017-08-01T05:15:11.522Z,23.13
2017-08-01T05:15:37.655Z,23.17
2017-08-01T05:16:03.817Z,23.03
2017-08-01T05:16:29.961Z,23.1
2017-08-01T05:16:56.113Z,23.1
2017-08-01T05:17:22.247Z,23.2
2017-08-01T05:17:48.337Z,23.18
2017-08-01T05:18:14.459Z,23.21
2017-08-01T05:18:40.634Z,23.27
2017-08-01T05:19:06.812Z,23.31
2017-08-01T05:19:32.950Z,23.31
2017-08-01T05:19:59.038Z,23.31
2017-08-01T05:20:25.142Z,23.31
2017-08-01T05:20:51.334Z,23.37
2017-08-01T05:21:17.426Z,23.4
2017-08-01T05:21:43.548Z,23.25
2017-08-01T05:22:09.685Z,23.21
2017-08-01T05:22:35.854Z,23.2
2017-08-01T05:23:01.945Z,23.2
2017-08-01T05:23:28.079Z,23.24
2017-08-01T05:23:54.234Z,23.21
2017-08-01T05:24:20.385Z,23.2
2017-08-01T05:24:46.502Z,23.23
2017-08-01T05:25:12.651Z,23.24
2017-08-01T05:25:38.786Z,23.37
2017-08-01T05:26:04.906Z,23.4
2017-08-01T05:26:31.048Z,23.43
2017-08-01T05:26:57.183Z,23.41
2017-08-01T05:27:23.335Z,23.48
2017-08-01T05:27:49.427Z,23.48
2017-08-01T05:28:15.580Z,23.47
2017-08-01T05:28:41.708Z,23.39
2017-08-01T05:29:07.848Z,23.5
2017-08-01T05:29:33.952Z,23.46
2017-08-01T05:30:00.068Z,23.51
2017-08-01T05:30:26.204Z,23.55
2017-08-01T05:30:52.329Z,23.54
2017-08-01T05:31:18.420Z,23.5
2017-08-01T05:31:44.553Z,23.44
2017-08-01T05:32:10.681Z,23.47
2017-08-01T05:32:36.795Z,23.4
2017-08-01T05:33:02.956Z,23.4
2017-08-01T05:33:29.086Z,23.27
2017-08-01T05:33:55.199Z,23.28
2017-08-01T05:34:21.325Z,23.28
2017-08-01T05:34:47.459Z,23.18
2017-08-01T05:35:13.577Z,23.12
2017-08-01T05:35:39.708Z,23.08
2017-08-01T05:36:05.823Z,23.05
2017-08-01T05:36:31.983Z,23.05
2017-08-01T05:36:58.090Z,22.98
2017-08-01T05:37:24.180Z,22.99
2017-08-01T05:37:50.335Z,22.96
2017-08-01T05:38:16.498Z,23.05